sensor_id;sensor_type;location;lat;lon;timestamp;P1;durP1;ratioP1;P2;durP2;ratioP2
68821;SDS011;55834;50.870;4.606;2023-05-07T00:02:11;2.60;;;2.07;;
68821;SDS011;55834;50.870;4.606;2023-05-07T00:04:36;2.20;;;1.83;;
68821;SDS011;55834;50.870;4.606;2023-05-07T00:09:29;4.20;;;2.80;;
68821;SDS011;55834;50.870;4.606;2023-05-07T00:11:54;2.50;;;2.17;;
68821;SDS011;55834;50.870;4.606;2023-05-07T00:14:20;2.57;;;2.30;;
68821;SDS011;55834;50.870;4.606;2023-05-07T00:16:46;5.40;;;2.65;;
68821;SDS011;55834;50.870;4.606;2023-05-07T00:19:11;2.42;;;1.95;;
68821;SDS011;55834;50.870;4.606;2023-05-07T00:21:36;2.60;;;2.15;;
68821;SDS011;55834;50.870;4.606;2023-05-07T00:24:02;4.18;;;2.33;;
68821;SDS011;55834;50.870;4.606;2023-05-07T00:26:28;3.10;;;2.00;;
68821;SDS011;55834;50.870;4.606;2023-05-07T00:28:53;2.25;;;2.05;;
68821;SDS011;55834;50.870;4.606;2023-05-07T00:31:19;2.90;;;1.95;;
68821;SDS011;55834;50.870;4.606;2023-05-07T00:33:44;5.40;;;2.10;;
68821;SDS011;55834;50.870;4.606;2023-05-07T00:36:09;3.53;;;2.23;;
68821;SDS011;55834;50.870;4.606;2023-05-07T00:38:35;2.73;;;1.80;;
68821;SDS011;55834;50.870;4.606;2023-05-07T00:41:00;2.40;;;2.20;;
68821;SDS011;55834;50.870;4.606;2023-05-07T00:43:27;4.00;;;1.80;;
68821;SDS011;55834;50.870;4.606;2023-05-07T00:45:53;3.88;;;2.97;;
68821;SDS011;55834;50.870;4.606;2023-05-07T00:48:18;3.17;;;2.17;;
68821;SDS011;55834;50.870;4.606;2023-05-07T00:50:44;2.78;;;1.77;;
68821;SDS011;55834;50.870;4.606;2023-05-07T00:53:10;2.67;;;1.83;;
68821;SDS011;55834;50.870;4.606;2023-05-07T00:55:36;3.15;;;1.90;;
68821;SDS011;55834;50.870;4.606;2023-05-07T00:58:03;2.90;;;2.08;;
68821;SDS011;55834;50.870;4.606;2023-05-07T01:00:29;2.78;;;2.05;;
68821;SDS011;55834;50.870;4.606;2023-05-07T01:02:54;3.47;;;2.15;;
68821;SDS011;55834;50.870;4.606;2023-05-07T01:05:20;2.45;;;2.08;;
68821;SDS011;55834;50.870;4.606;2023-05-07T01:07:47;3.50;;;2.50;;
68821;SDS011;55834;50.870;4.606;2023-05-07T01:10:15;4.40;;;3.35;;
68821;SDS011;55834;50.870;4.606;2023-05-07T01:12:42;2.97;;;2.08;;
68821;SDS011;55834;50.870;4.606;2023-05-07T01:25:02;4.47;;;3.10;;
68821;SDS011;55834;50.870;4.606;2023-05-07T01:27:28;3.22;;;2.47;;
68821;SDS011;55834;50.870;4.606;2023-05-07T01:29:54;4.32;;;2.55;;
68821;SDS011;55834;50.870;4.606;2023-05-07T01:32:27;2.25;;;1.95;;
68821;SDS011;55834;50.870;4.606;2023-05-07T01:34:55;3.97;;;2.10;;
68821;SDS011;55834;50.870;4.606;2023-05-07T01:37:23;2.58;;;2.03;;
68821;SDS011;55834;50.870;4.606;2023-05-07T01:39:50;3.63;;;2.20;;
68821;SDS011;55834;50.870;4.606;2023-05-07T01:42:16;4.30;;;2.90;;
68821;SDS011;55834;50.870;4.606;2023-05-07T01:44:42;2.93;;;2.50;;
68821;SDS011;55834;50.870;4.606;2023-05-07T01:47:07;4.78;;;3.80;;
68821;SDS011;55834;50.870;4.606;2023-05-07T01:49:34;3.35;;;3.05;;
68821;SDS011;55834;50.870;4.606;2023-05-07T01:51:59;2.70;;;2.15;;
68821;SDS011;55834;50.870;4.606;2023-05-07T01:54:26;3.33;;;2.60;;
68821;SDS011;55834;50.870;4.606;2023-05-07T01:56:58;5.32;;;2.40;;
68821;SDS011;55834;50.870;4.606;2023-05-07T01:59:23;3.78;;;2.15;;
68821;SDS011;55834;50.870;4.606;2023-05-07T02:01:49;3.60;;;2.60;;
68821;SDS011;55834;50.870;4.606;2023-05-07T02:04:14;5.05;;;2.40;;
68821;SDS011;55834;50.870;4.606;2023-05-07T02:06:40;2.63;;;2.23;;
68821;SDS011;55834;50.870;4.606;2023-05-07T02:09:05;4.32;;;2.75;;
68821;SDS011;55834;50.870;4.606;2023-05-07T02:11:31;2.65;;;2.10;;
68821;SDS011;55834;50.870;4.606;2023-05-07T02:13:56;4.55;;;2.75;;
68821;SDS011;55834;50.870;4.606;2023-05-07T02:16:21;4.20;;;3.78;;
68821;SDS011;55834;50.870;4.606;2023-05-07T02:18:48;3.90;;;2.70;;
68821;SDS011;55834;50.870;4.606;2023-05-07T02:21:13;3.60;;;3.28;;
68821;SDS011;55834;50.870;4.606;2023-05-07T02:23:39;3.42;;;2.72;;
68821;SDS011;55834;50.870;4.606;2023-05-07T02:26:04;3.70;;;2.67;;
68821;SDS011;55834;50.870;4.606;2023-05-07T02:28:30;2.97;;;2.60;;
68821;SDS011;55834;50.870;4.606;2023-05-07T02:30:55;3.33;;;2.22;;
68821;SDS011;55834;50.870;4.606;2023-05-07T02:33:23;3.75;;;2.47;;
68821;SDS011;55834;50.870;4.606;2023-05-07T02:35:49;3.58;;;2.75;;
68821;SDS011;55834;50.870;4.606;2023-05-07T02:38:14;3.63;;;2.20;;
68821;SDS011;55834;50.870;4.606;2023-05-07T02:40:40;4.47;;;2.58;;
68821;SDS011;55834;50.870;4.606;2023-05-07T02:43:05;3.88;;;3.38;;
68821;SDS011;55834;50.870;4.606;2023-05-07T02:45:31;4.85;;;3.30;;
68821;SDS011;55834;50.870;4.606;2023-05-07T02:47:57;4.88;;;3.40;;
68821;SDS011;55834;50.870;4.606;2023-05-07T02:50:23;5.43;;;3.25;;
68821;SDS011;55834;50.870;4.606;2023-05-07T02:52:48;4.47;;;2.88;;
68821;SDS011;55834;50.870;4.606;2023-05-07T02:55:14;8.90;;;4.85;;
68821;SDS011;55834;50.870;4.606;2023-05-07T02:57:39;3.90;;;2.63;;
68821;SDS011;55834;50.870;4.606;2023-05-07T03:00:15;8.35;;;3.58;;
68821;SDS011;55834;50.870;4.606;2023-05-07T03:02:44;4.63;;;3.30;;
68821;SDS011;55834;50.870;4.606;2023-05-07T03:05:10;6.25;;;3.92;;
68821;SDS011;55834;50.870;4.606;2023-05-07T03:07:36;3.40;;;2.90;;
68821;SDS011;55834;50.870;4.606;2023-05-07T03:10:03;3.47;;;2.58;;
68821;SDS011;55834;50.870;4.606;2023-05-07T03:12:29;4.72;;;2.50;;
68821;SDS011;55834;50.870;4.606;2023-05-07T03:14:55;5.13;;;3.10;;
68821;SDS011;55834;50.870;4.606;2023-05-07T03:17:21;6.45;;;2.97;;
68821;SDS011;55834;50.870;4.606;2023-05-07T03:19:46;3.65;;;2.80;;
68821;SDS011;55834;50.870;4.606;2023-05-07T03:22:12;2.97;;;2.50;;
68821;SDS011;55834;50.870;4.606;2023-05-07T03:24:37;4.38;;;2.83;;
68821;SDS011;55834;50.870;4.606;2023-05-07T03:27:02;2.63;;;2.42;;
68821;SDS011;55834;50.870;4.606;2023-05-07T03:29:28;5.43;;;3.28;;
68821;SDS011;55834;50.870;4.606;2023-05-07T03:31:53;4.47;;;3.35;;
68821;SDS011;55834;50.870;4.606;2023-05-07T03:34:19;3.88;;;3.17;;
68821;SDS011;55834;50.870;4.606;2023-05-07T03:36:48;4.07;;;3.30;;
68821;SDS011;55834;50.870;4.606;2023-05-07T03:39:13;3.67;;;3.22;;
68821;SDS011;55834;50.870;4.606;2023-05-07T03:41:39;9.48;;;4.18;;
68821;SDS011;55834;50.870;4.606;2023-05-07T03:44:04;4.10;;;2.92;;
68821;SDS011;55834;50.870;4.606;2023-05-07T03:46:30;3.55;;;2.92;;
68821;SDS011;55834;50.870;4.606;2023-05-07T03:48:57;3.60;;;2.60;;
68821;SDS011;55834;50.870;4.606;2023-05-07T03:51:23;3.95;;;2.88;;
68821;SDS011;55834;50.870;4.606;2023-05-07T03:53:48;5.85;;;3.80;;
68821;SDS011;55834;50.870;4.606;2023-05-07T03:56:14;7.00;;;3.70;;
68821;SDS011;55834;50.870;4.606;2023-05-07T03:58:39;6.05;;;3.97;;
68821;SDS011;55834;50.870;4.606;2023-05-07T04:01:05;3.47;;;3.15;;
68821;SDS011;55834;50.870;4.606;2023-05-07T04:03:30;5.88;;;3.22;;
68821;SDS011;55834;50.870;4.606;2023-05-07T04:05:56;4.85;;;3.40;;
68821;SDS011;55834;50.870;4.606;2023-05-07T04:08:21;5.18;;;2.70;;
68821;SDS011;55834;50.870;4.606;2023-05-07T04:10:46;5.88;;;3.35;;
68821;SDS011;55834;50.870;4.606;2023-05-07T04:13:12;2.72;;;2.53;;
68821;SDS011;55834;50.870;4.606;2023-05-07T04:15:38;4.82;;;3.47;;
68821;SDS011;55834;50.870;4.606;2023-05-07T04:18:03;5.65;;;2.95;;
68821;SDS011;55834;50.870;4.606;2023-05-07T04:20:29;6.97;;;4.00;;
68821;SDS011;55834;50.870;4.606;2023-05-07T04:22:54;5.70;;;4.20;;
68821;SDS011;55834;50.870;4.606;2023-05-07T04:25:20;3.10;;;2.80;;
68821;SDS011;55834;50.870;4.606;2023-05-07T04:27:46;4.72;;;3.15;;
68821;SDS011;55834;50.870;4.606;2023-05-07T04:30:11;10.10;;;4.13;;
68821;SDS011;55834;50.870;4.606;2023-05-07T04:32:37;8.23;;;4.30;;
68821;SDS011;55834;50.870;4.606;2023-05-07T04:35:04;5.70;;;3.63;;
68821;SDS011;55834;50.870;4.606;2023-05-07T04:37:31;5.07;;;4.22;;
68821;SDS011;55834;50.870;4.606;2023-05-07T04:39:57;7.80;;;4.15;;
68821;SDS011;55834;50.870;4.606;2023-05-07T04:42:22;4.82;;;3.42;;
68821;SDS011;55834;50.870;4.606;2023-05-07T04:44:52;4.50;;;2.90;;
68821;SDS011;55834;50.870;4.606;2023-05-07T04:47:17;5.07;;;2.95;;
68821;SDS011;55834;50.870;4.606;2023-05-07T04:49:43;6.13;;;3.20;;
68821;SDS011;55834;50.870;4.606;2023-05-07T04:52:08;4.40;;;3.63;;
68821;SDS011;55834;50.870;4.606;2023-05-07T04:54:33;4.10;;;3.27;;
68821;SDS011;55834;50.870;4.606;2023-05-07T04:56:59;3.22;;;2.92;;
68821;SDS011;55834;50.870;4.606;2023-05-07T04:59:24;3.40;;;3.08;;
68821;SDS011;55834;50.870;4.606;2023-05-07T05:01:50;4.70;;;3.60;;
68821;SDS011;55834;50.870;4.606;2023-05-07T05:04:15;4.00;;;3.60;;
68821;SDS011;55834;50.870;4.606;2023-05-07T05:06:41;3.60;;;3.30;;
68821;SDS011;55834;50.870;4.606;2023-05-07T05:09:06;6.85;;;3.45;;
68821;SDS011;55834;50.870;4.606;2023-05-07T05:11:32;3.35;;;3.03;;
68821;SDS011;55834;50.870;4.606;2023-05-07T05:13:58;3.93;;;2.97;;
68821;SDS011;55834;50.870;4.606;2023-05-07T05:16:24;5.63;;;3.92;;
68821;SDS011;55834;50.870;4.606;2023-05-07T05:18:49;4.55;;;3.67;;
68821;SDS011;55834;50.870;4.606;2023-05-07T05:21:17;6.72;;;3.13;;
68821;SDS011;55834;50.870;4.606;2023-05-07T05:23:42;3.85;;;2.67;;
68821;SDS011;55834;50.870;4.606;2023-05-07T05:26:08;4.82;;;3.97;;
68821;SDS011;55834;50.870;4.606;2023-05-07T05:28:33;5.03;;;3.65;;
68821;SDS011;55834;50.870;4.606;2023-05-07T05:30:59;5.85;;;4.40;;
68821;SDS011;55834;50.870;4.606;2023-05-07T05:33:24;10.07;;;7.05;;
68821;SDS011;55834;50.870;4.606;2023-05-07T05:35:50;6.78;;;5.43;;
68821;SDS011;55834;50.870;4.606;2023-05-07T05:38:15;7.53;;;5.00;;
68821;SDS011;55834;50.870;4.606;2023-05-07T05:40:41;6.00;;;4.00;;
68821;SDS011;55834;50.870;4.606;2023-05-07T05:43:06;6.20;;;3.83;;
68821;SDS011;55834;50.870;4.606;2023-05-07T05:45:32;6.20;;;3.53;;
68821;SDS011;55834;50.870;4.606;2023-05-07T05:47:57;4.88;;;3.78;;
68821;SDS011;55834;50.870;4.606;2023-05-07T05:50:23;6.07;;;3.53;;
68821;SDS011;55834;50.870;4.606;2023-05-07T05:52:48;7.40;;;3.53;;
68821;SDS011;55834;50.870;4.606;2023-05-07T05:55:20;4.60;;;3.25;;
68821;SDS011;55834;50.870;4.606;2023-05-07T05:57:45;5.85;;;3.20;;
68821;SDS011;55834;50.870;4.606;2023-05-07T06:00:11;5.03;;;3.35;;
68821;SDS011;55834;50.870;4.606;2023-05-07T06:02:37;3.95;;;3.40;;
68821;SDS011;55834;50.870;4.606;2023-05-07T06:05:03;6.88;;;3.78;;
68821;SDS011;55834;50.870;4.606;2023-05-07T06:07:29;5.97;;;3.78;;
68821;SDS011;55834;50.870;4.606;2023-05-07T06:09:54;3.83;;;3.33;;
68821;SDS011;55834;50.870;4.606;2023-05-07T06:12:20;4.95;;;3.78;;
68821;SDS011;55834;50.870;4.606;2023-05-07T06:14:46;5.53;;;3.22;;
68821;SDS011;55834;50.870;4.606;2023-05-07T06:17:11;6.63;;;3.55;;
68821;SDS011;55834;50.870;4.606;2023-05-07T06:19:37;9.90;;;5.82;;
68821;SDS011;55834;50.870;4.606;2023-05-07T06:22:02;8.88;;;5.65;;
68821;SDS011;55834;50.870;4.606;2023-05-07T06:24:28;7.93;;;5.18;;
68821;SDS011;55834;50.870;4.606;2023-05-07T06:26:53;8.68;;;5.93;;
68821;SDS011;55834;50.870;4.606;2023-05-07T06:29:19;14.65;;;6.28;;
68821;SDS011;55834;50.870;4.606;2023-05-07T06:31:44;8.93;;;5.03;;
68821;SDS011;55834;50.870;4.606;2023-05-07T06:34:13;5.70;;;4.00;;
68821;SDS011;55834;50.870;4.606;2023-05-07T06:36:41;6.82;;;5.20;;
68821;SDS011;55834;50.870;4.606;2023-05-07T06:39:07;8.45;;;6.22;;
68821;SDS011;55834;50.870;4.606;2023-05-07T06:41:32;9.87;;;5.37;;
68821;SDS011;55834;50.870;4.606;2023-05-07T06:43:57;11.03;;;5.80;;
68821;SDS011;55834;50.870;4.606;2023-05-07T06:46:23;15.53;;;6.47;;
68821;SDS011;55834;50.870;4.606;2023-05-07T06:48:48;15.73;;;6.57;;
68821;SDS011;55834;50.870;4.606;2023-05-07T06:51:13;21.95;;;9.75;;
68821;SDS011;55834;50.870;4.606;2023-05-07T06:53:39;14.10;;;6.18;;
68821;SDS011;55834;50.870;4.606;2023-05-07T06:56:05;13.70;;;6.35;;
68821;SDS011;55834;50.870;4.606;2023-05-07T06:58:31;10.88;;;5.65;;
68821;SDS011;55834;50.870;4.606;2023-05-07T07:00:56;9.23;;;4.88;;
68821;SDS011;55834;50.870;4.606;2023-05-07T07:03:21;7.78;;;3.30;;
68821;SDS011;55834;50.870;4.606;2023-05-07T07:05:47;6.75;;;3.10;;
68821;SDS011;55834;50.870;4.606;2023-05-07T07:08:12;4.13;;;3.10;;
68821;SDS011;55834;50.870;4.606;2023-05-07T07:10:38;4.72;;;2.65;;
68821;SDS011;55834;50.870;4.606;2023-05-07T07:13:03;4.57;;;2.22;;
68821;SDS011;55834;50.870;4.606;2023-05-07T07:15:28;4.85;;;2.28;;
68821;SDS011;55834;50.870;4.606;2023-05-07T07:17:54;3.25;;;2.10;;
68821;SDS011;55834;50.870;4.606;2023-05-07T07:20:19;2.92;;;1.80;;
68821;SDS011;55834;50.870;4.606;2023-05-07T07:22:45;4.75;;;2.15;;
68821;SDS011;55834;50.870;4.606;2023-05-07T07:25:10;7.57;;;2.47;;
68821;SDS011;55834;50.870;4.606;2023-05-07T07:27:36;3.80;;;1.98;;
68821;SDS011;55834;50.870;4.606;2023-05-07T07:30:02;5.10;;;2.80;;
68821;SDS011;55834;50.870;4.606;2023-05-07T07:32:28;6.25;;;3.13;;
68821;SDS011;55834;50.870;4.606;2023-05-07T07:34:53;3.53;;;2.22;;
68821;SDS011;55834;50.870;4.606;2023-05-07T07:37:19;3.53;;;2.10;;
68821;SDS011;55834;50.870;4.606;2023-05-07T07:39:44;4.65;;;2.78;;
68821;SDS011;55834;50.870;4.606;2023-05-07T07:42:10;3.00;;;1.90;;
68821;SDS011;55834;50.870;4.606;2023-05-07T07:44:35;5.83;;;1.93;;
68821;SDS011;55834;50.870;4.606;2023-05-07T07:47:00;5.20;;;1.97;;
68821;SDS011;55834;50.870;4.606;2023-05-07T07:49:26;5.22;;;2.17;;
68821;SDS011;55834;50.870;4.606;2023-05-07T07:51:52;4.78;;;2.58;;
68821;SDS011;55834;50.870;4.606;2023-05-07T07:54:17;2.67;;;1.52;;
68821;SDS011;55834;50.870;4.606;2023-05-07T07:56:42;5.83;;;2.10;;
68821;SDS011;55834;50.870;4.606;2023-05-07T07:59:08;5.90;;;2.40;;
68821;SDS011;55834;50.870;4.606;2023-05-07T08:01:33;8.48;;;2.72;;
68821;SDS011;55834;50.870;4.606;2023-05-07T08:03:59;3.53;;;2.15;;
68821;SDS011;55834;50.870;4.606;2023-05-07T08:06:28;4.20;;;2.95;;
68821;SDS011;55834;50.870;4.606;2023-05-07T08:08:53;4.22;;;2.55;;
68821;SDS011;55834;50.870;4.606;2023-05-07T08:11:19;5.27;;;2.33;;
68821;SDS011;55834;50.870;4.606;2023-05-07T08:13:45;6.72;;;3.40;;
68821;SDS011;55834;50.870;4.606;2023-05-07T08:16:11;5.85;;;2.35;;
68821;SDS011;55834;50.870;4.606;2023-05-07T08:18:36;5.35;;;2.60;;
68821;SDS011;55834;50.870;4.606;2023-05-07T08:21:02;3.22;;;2.13;;
68821;SDS011;55834;50.870;4.606;2023-05-07T08:23:27;3.22;;;2.45;;
68821;SDS011;55834;50.870;4.606;2023-05-07T08:25:53;6.88;;;3.30;;
68821;SDS011;55834;50.870;4.606;2023-05-07T08:28:18;3.35;;;2.63;;
68821;SDS011;55834;50.870;4.606;2023-05-07T08:30:46;2.80;;;2.55;;
68821;SDS011;55834;50.870;4.606;2023-05-07T08:33:12;3.60;;;2.17;;
68821;SDS011;55834;50.870;4.606;2023-05-07T08:35:37;3.88;;;2.45;;
68821;SDS011;55834;50.870;4.606;2023-05-07T08:38:03;3.33;;;2.67;;
68821;SDS011;55834;50.870;4.606;2023-05-07T08:40:28;5.97;;;2.78;;
68821;SDS011;55834;50.870;4.606;2023-05-07T08:42:58;4.13;;;2.17;;
68821;SDS011;55834;50.870;4.606;2023-05-07T08:45:25;5.43;;;2.53;;
68821;SDS011;55834;50.870;4.606;2023-05-07T08:47:55;4.60;;;2.72;;
68821;SDS011;55834;50.870;4.606;2023-05-07T08:50:24;8.10;;;3.35;;
68821;SDS011;55834;50.870;4.606;2023-05-07T08:52:50;4.85;;;2.33;;
68821;SDS011;55834;50.870;4.606;2023-05-07T08:55:16;3.85;;;2.35;;
68821;SDS011;55834;50.870;4.606;2023-05-07T08:57:42;3.35;;;1.88;;
68821;SDS011;55834;50.870;4.606;2023-05-07T09:00:08;6.05;;;3.17;;
68821;SDS011;55834;50.870;4.606;2023-05-07T09:05:03;3.40;;;2.88;;
68821;SDS011;55834;50.870;4.606;2023-05-07T09:07:29;3.55;;;2.60;;
68821;SDS011;55834;50.870;4.606;2023-05-07T09:09:55;4.05;;;2.40;;
68821;SDS011;55834;50.870;4.606;2023-05-07T09:12:30;4.25;;;2.42;;
68821;SDS011;55834;50.870;4.606;2023-05-07T09:14:56;3.55;;;2.20;;
68821;SDS011;55834;50.870;4.606;2023-05-07T09:17:28;6.88;;;2.83;;
68821;SDS011;55834;50.870;4.606;2023-05-07T09:20:03;3.95;;;2.58;;
68821;SDS011;55834;50.870;4.606;2023-05-07T09:22:33;4.03;;;2.60;;
68821;SDS011;55834;50.870;4.606;2023-05-07T09:25:01;4.93;;;2.85;;
68821;SDS011;55834;50.870;4.606;2023-05-07T09:27:26;5.43;;;2.40;;
68821;SDS011;55834;50.870;4.606;2023-05-07T09:29:52;5.03;;;2.58;;
68821;SDS011;55834;50.870;4.606;2023-05-07T09:32:17;4.32;;;2.38;;
68821;SDS011;55834;50.870;4.606;2023-05-07T09:34:43;3.92;;;1.70;;
68821;SDS011;55834;50.870;4.606;2023-05-07T09:37:08;5.07;;;2.85;;
68821;SDS011;55834;50.870;4.606;2023-05-07T09:39:40;8.50;;;3.00;;
68821;SDS011;55834;50.870;4.606;2023-05-07T09:42:10;2.75;;;1.92;;
68821;SDS011;55834;50.870;4.606;2023-05-07T09:44:43;5.10;;;2.03;;
68821;SDS011;55834;50.870;4.606;2023-05-07T09:47:11;5.03;;;2.05;;
68821;SDS011;55834;50.870;4.606;2023-05-07T09:49:43;5.50;;;2.58;;
68821;SDS011;55834;50.870;4.606;2023-05-07T09:52:13;5.38;;;2.20;;
68821;SDS011;55834;50.870;4.606;2023-05-07T09:54:39;2.92;;;1.60;;
68821;SDS011;55834;50.870;4.606;2023-05-07T09:57:07;2.08;;;1.48;;
68821;SDS011;55834;50.870;4.606;2023-05-07T09:59:37;4.97;;;1.88;;
68821;SDS011;55834;50.870;4.606;2023-05-07T10:02:03;4.57;;;2.10;;
68821;SDS011;55834;50.870;4.606;2023-05-07T10:04:29;2.63;;;1.75;;
68821;SDS011;55834;50.870;4.606;2023-05-07T10:06:56;4.32;;;1.60;;
68821;SDS011;55834;50.870;4.606;2023-05-07T10:09:23;2.60;;;1.70;;
68821;SDS011;55834;50.870;4.606;2023-05-07T10:11:51;3.28;;;2.05;;
68821;SDS011;55834;50.870;4.606;2023-05-07T10:14:19;3.92;;;2.00;;
68821;SDS011;55834;50.870;4.606;2023-05-07T10:16:45;5.55;;;2.40;;
68821;SDS011;55834;50.870;4.606;2023-05-07T10:19:12;4.05;;;2.10;;
68821;SDS011;55834;50.870;4.606;2023-05-07T10:21:39;4.78;;;2.60;;
68821;SDS011;55834;50.870;4.606;2023-05-07T10:24:10;3.53;;;2.58;;
68821;SDS011;55834;50.870;4.606;2023-05-07T10:26:43;2.72;;;2.47;;
68821;SDS011;55834;50.870;4.606;2023-05-07T10:29:25;7.47;;;3.10;;
68821;SDS011;55834;50.870;4.606;2023-05-07T10:32:15;4.38;;;2.45;;
68821;SDS011;55834;50.870;4.606;2023-05-07T10:34:48;4.15;;;2.10;;
68821;SDS011;55834;50.870;4.606;2023-05-07T10:37:15;3.78;;;2.38;;
68821;SDS011;55834;50.870;4.606;2023-05-07T10:39:42;3.00;;;1.65;;
68821;SDS011;55834;50.870;4.606;2023-05-07T10:42:11;3.85;;;2.47;;
68821;SDS011;55834;50.870;4.606;2023-05-07T10:44:38;2.78;;;1.60;;
68821;SDS011;55834;50.870;4.606;2023-05-07T10:47:04;6.15;;;2.28;;
68821;SDS011;55834;50.870;4.606;2023-05-07T10:49:31;4.50;;;1.92;;
68821;SDS011;55834;50.870;4.606;2023-05-07T10:54:42;2.05;;;1.45;;
68821;SDS011;55834;50.870;4.606;2023-05-07T10:59:56;3.25;;;1.67;;
68821;SDS011;55834;50.870;4.606;2023-05-07T11:02:21;2.00;;;1.52;;
68821;SDS011;55834;50.870;4.606;2023-05-07T11:07:47;2.53;;;1.08;;
68821;SDS011;55834;50.870;4.606;2023-05-07T11:10:19;2.45;;;1.50;;
68821;SDS011;55834;50.870;4.606;2023-05-07T11:15:10;1.60;;;1.27;;
68821;SDS011;55834;50.870;4.606;2023-05-07T11:17:58;3.17;;;1.35;;
68821;SDS011;55834;50.870;4.606;2023-05-07T11:26:08;1.58;;;1.10;;
68821;SDS011;55834;50.870;4.606;2023-05-07T11:28:41;1.88;;;1.30;;
68821;SDS011;55834;50.870;4.606;2023-05-07T11:31:09;4.43;;;1.33;;
68821;SDS011;55834;50.870;4.606;2023-05-07T11:33:36;2.88;;;1.23;;
68821;SDS011;55834;50.870;4.606;2023-05-07T11:36:03;2.30;;;0.85;;
68821;SDS011;55834;50.870;4.606;2023-05-07T11:38:29;2.85;;;0.95;;
68821;SDS011;55834;50.870;4.606;2023-05-07T11:40:56;2.20;;;1.20;;
68821;SDS011;55834;50.870;4.606;2023-05-07T11:43:23;2.40;;;1.27;;
68821;SDS011;55834;50.870;4.606;2023-05-07T11:45:49;2.92;;;1.00;;
68821;SDS011;55834;50.870;4.606;2023-05-07T11:48:15;2.50;;;1.30;;
68821;SDS011;55834;50.870;4.606;2023-05-07T11:50:59;2.08;;;1.17;;
68821;SDS011;55834;50.870;4.606;2023-05-07T11:53:26;2.33;;;1.75;;
68821;SDS011;55834;50.870;4.606;2023-05-07T11:55:53;2.45;;;2.10;;
68821;SDS011;55834;50.870;4.606;2023-05-07T11:58:21;1.42;;;1.05;;
68821;SDS011;55834;50.870;4.606;2023-05-07T12:00:48;4.13;;;1.65;;
68821;SDS011;55834;50.870;4.606;2023-05-07T12:03:20;2.92;;;1.50;;
68821;SDS011;55834;50.870;4.606;2023-05-07T12:05:46;1.67;;;1.10;;
68821;SDS011;55834;50.870;4.606;2023-05-07T12:08:19;3.70;;;1.20;;
68821;SDS011;55834;50.870;4.606;2023-05-07T12:10:45;1.70;;;1.00;;
68821;SDS011;55834;50.870;4.606;2023-05-07T12:13:15;2.63;;;1.45;;
68821;SDS011;55834;50.870;4.606;2023-05-07T12:15:45;4.32;;;1.67;;
68821;SDS011;55834;50.870;4.606;2023-05-07T12:18:11;3.38;;;1.48;;
68821;SDS011;55834;50.870;4.606;2023-05-07T12:20:38;4.18;;;1.45;;
68821;SDS011;55834;50.870;4.606;2023-05-07T12:23:04;1.33;;;1.15;;
68821;SDS011;55834;50.870;4.606;2023-05-07T12:25:32;2.75;;;1.05;;
68821;SDS011;55834;50.870;4.606;2023-05-07T12:28:00;2.30;;;1.40;;
68821;SDS011;55834;50.870;4.606;2023-05-07T12:32:53;3.40;;;1.23;;
68821;SDS011;55834;50.870;4.606;2023-05-07T12:35:28;4.40;;;1.40;;
68821;SDS011;55834;50.870;4.606;2023-05-07T12:37:54;1.80;;;1.25;;
68821;SDS011;55834;50.870;4.606;2023-05-07T12:40:20;2.05;;;1.20;;
68821;SDS011;55834;50.870;4.606;2023-05-07T12:42:46;2.28;;;1.00;;
68821;SDS011;55834;50.870;4.606;2023-05-07T12:45:12;1.50;;;1.00;;
68821;SDS011;55834;50.870;4.606;2023-05-07T12:47:45;2.05;;;0.98;;
68821;SDS011;55834;50.870;4.606;2023-05-07T12:50:11;1.42;;;0.88;;
68821;SDS011;55834;50.870;4.606;2023-05-07T12:52:36;1.90;;;1.33;;
68821;SDS011;55834;50.870;4.606;2023-05-07T12:55:06;2.65;;;1.48;;
68821;SDS011;55834;50.870;4.606;2023-05-07T12:57:39;1.73;;;1.60;;
68821;SDS011;55834;50.870;4.606;2023-05-07T13:00:06;2.10;;;1.35;;
68821;SDS011;55834;50.870;4.606;2023-05-07T13:02:32;1.63;;;1.25;;
68821;SDS011;55834;50.870;4.606;2023-05-07T13:04:59;3.10;;;1.85;;
68821;SDS011;55834;50.870;4.606;2023-05-07T13:07:25;3.38;;;1.70;;
68821;SDS011;55834;50.870;4.606;2023-05-07T13:09:50;1.48;;;1.27;;
68821;SDS011;55834;50.870;4.606;2023-05-07T13:12:16;2.10;;;1.10;;
68821;SDS011;55834;50.870;4.606;2023-05-07T13:14:41;2.67;;;1.70;;
68821;SDS011;55834;50.870;4.606;2023-05-07T13:17:06;2.30;;;1.93;;
68821;SDS011;55834;50.870;4.606;2023-05-07T13:19:32;4.97;;;1.55;;
68821;SDS011;55834;50.870;4.606;2023-05-07T13:21:57;3.80;;;1.73;;
68821;SDS011;55834;50.870;4.606;2023-05-07T13:24:23;1.53;;;0.97;;
68821;SDS011;55834;50.870;4.606;2023-05-07T13:26:48;3.90;;;1.55;;
68821;SDS011;55834;50.870;4.606;2023-05-07T13:29:13;1.77;;;1.03;;
68821;SDS011;55834;50.870;4.606;2023-05-07T13:31:39;1.95;;;1.35;;
68821;SDS011;55834;50.870;4.606;2023-05-07T13:34:07;1.42;;;1.33;;
68821;SDS011;55834;50.870;4.606;2023-05-07T13:36:33;3.15;;;1.85;;
68821;SDS011;55834;50.870;4.606;2023-05-07T13:39:02;1.30;;;1.20;;
68821;SDS011;55834;50.870;4.606;2023-05-07T13:41:28;2.50;;;1.83;;
68821;SDS011;55834;50.870;4.606;2023-05-07T13:43:54;3.83;;;2.17;;
68821;SDS011;55834;50.870;4.606;2023-05-07T13:46:21;1.17;;;1.10;;
68821;SDS011;55834;50.870;4.606;2023-05-07T13:48:46;1.80;;;1.70;;
68821;SDS011;55834;50.870;4.606;2023-05-07T13:51:12;1.70;;;1.30;;
68821;SDS011;55834;50.870;4.606;2023-05-07T13:53:38;2.83;;;1.90;;
68821;SDS011;55834;50.870;4.606;2023-05-07T13:56:04;1.48;;;1.35;;
68821;SDS011;55834;50.870;4.606;2023-05-07T13:58:30;1.60;;;1.50;;
68821;SDS011;55834;50.870;4.606;2023-05-07T14:00:55;2.08;;;1.33;;
68821;SDS011;55834;50.870;4.606;2023-05-07T14:03:21;2.80;;;1.55;;
68821;SDS011;55834;50.870;4.606;2023-05-07T14:05:47;2.17;;;1.60;;
68821;SDS011;55834;50.870;4.606;2023-05-07T14:08:25;5.20;;;1.63;;
68821;SDS011;55834;50.870;4.606;2023-05-07T14:10:51;3.42;;;2.00;;
68821;SDS011;55834;50.870;4.606;2023-05-07T14:13:16;2.03;;;1.27;;
68821;SDS011;55834;50.870;4.606;2023-05-07T14:15:42;2.72;;;1.73;;
68821;SDS011;55834;50.870;4.606;2023-05-07T14:18:11;3.30;;;1.48;;
68821;SDS011;55834;50.870;4.606;2023-05-07T14:20:37;1.95;;;1.42;;
68821;SDS011;55834;50.870;4.606;2023-05-07T14:23:03;1.58;;;1.48;;
68821;SDS011;55834;50.870;4.606;2023-05-07T14:25:28;2.00;;;1.50;;
68821;SDS011;55834;50.870;4.606;2023-05-07T14:27:53;2.00;;;1.27;;
68821;SDS011;55834;50.870;4.606;2023-05-07T14:30:19;2.20;;;1.50;;
68821;SDS011;55834;50.870;4.606;2023-05-07T14:32:44;3.10;;;1.45;;
68821;SDS011;55834;50.870;4.606;2023-05-07T14:35:10;1.63;;;1.23;;
68821;SDS011;55834;50.870;4.606;2023-05-07T14:37:35;1.50;;;1.30;;
68821;SDS011;55834;50.870;4.606;2023-05-07T14:40:01;2.72;;;1.80;;
68821;SDS011;55834;50.870;4.606;2023-05-07T14:42:27;3.70;;;1.92;;
68821;SDS011;55834;50.870;4.606;2023-05-07T14:44:52;1.55;;;1.40;;
68821;SDS011;55834;50.870;4.606;2023-05-07T14:47:18;2.75;;;1.77;;
68821;SDS011;55834;50.870;4.606;2023-05-07T14:49:43;3.28;;;2.35;;
68821;SDS011;55834;50.870;4.606;2023-05-07T14:52:09;2.28;;;1.70;;
68821;SDS011;55834;50.870;4.606;2023-05-07T14:54:35;2.90;;;1.90;;
68821;SDS011;55834;50.870;4.606;2023-05-07T14:57:02;2.38;;;2.17;;
68821;SDS011;55834;50.870;4.606;2023-05-07T14:59:29;3.15;;;1.92;;
68821;SDS011;55834;50.870;4.606;2023-05-07T15:01:55;2.08;;;1.80;;
68821;SDS011;55834;50.870;4.606;2023-05-07T15:04:20;2.33;;;2.13;;
68821;SDS011;55834;50.870;4.606;2023-05-07T15:06:46;3.80;;;2.08;;
68821;SDS011;55834;50.870;4.606;2023-05-07T15:09:11;3.20;;;2.45;;
68821;SDS011;55834;50.870;4.606;2023-05-07T15:11:37;2.45;;;2.25;;
68821;SDS011;55834;50.870;4.606;2023-05-07T15:14:02;3.65;;;2.40;;
68821;SDS011;55834;50.870;4.606;2023-05-07T15:16:28;2.80;;;2.60;;
68821;SDS011;55834;50.870;4.606;2023-05-07T15:18:53;2.10;;;1.90;;